Dades meteomassalio
Diari Summary for Setembre 9, 2017 Units:  English    Metric   Both
« Previous Day
Next Day »
Diari Semanal Mensual Anual Personalitzat
  Maxima: Minima: Mijana:
Temperatura: TemperatureC °F 11.7 °F 16.3 °F
Rosada: DewpointC °F 7.8 °F 10.9 °F
Humitat: Humidity % 53 % 71 %
Velocitat del vent: WindSpeedKMH mph 0.0 mph 17.7 mph
Racha vent: WindSpeedGustKMH mph - -
Vent:- - SW
Pressio: PressurehPa in 1007.3 in -
Pluja: 0.3 in    
Historical Graphs
 
 
Tabular Data for Setembre 9, 2017
Time Temperature Dew Point Pressure Wind Wind Speed Wind Gust Humidity Rainfall Rate (Hourly) solar Conditions
TemperatureC °F DewpointC °F PressurehPa in Calm     Humidity % HourlyPrecipMM in SolarRadiationWatts/m^2 W/m2 Conditions
00:00 15.0 °F 10.4 °F 1010.7 in Calm     74 % 0.0 in 0.0 W/m2 CLR
00:05 15.0 °F 10.2 °F 1010.7 in Calm     73 % 0.0 in 0.0 W/m2 CLR
00:10 15.0 °F 10.6 °F 1010.7 in Calm     75 % 0.0 in 0.0 W/m2 CLR
00:15 15.0 °F 11.0 °F 1010.7 in Calm     77 % 0.0 in 0.0 W/m2 CLR
00:20 14.4 °F 10.4 °F 1010.7 in Calm     77 % 0.0 in 0.0 W/m2 CLR
00:25 14.4 °F 10.3 °F 1010.7 in Calm     76 % 0.0 in 0.0 W/m2 CLR
00:30 14.4 °F 10.1 °F 1010.7 in Calm     75 % 0.0 in 0.0 W/m2 CLR
00:35 15.0 °F 11.4 °F 1010.7 in Calm     79 % 0.0 in 0.0 W/m2 CLR
00:40 15.0 °F 11.2 °F 1010.7 in Calm     78 % 0.0 in 0.0 W/m2 CLR
00:45 15.0 °F 11.0 °F 1010.7 in Calm     77 % 0.0 in 0.0 W/m2 CLR
00:50 15.6 °F 11.6 °F 1010.4 in Calm     77 % 0.0 in 0.0 W/m2 CLR
00:55 15.6 °F 11.6 °F 1010.7 in Calm     77 % 0.0 in 0.0 W/m2 CLR
01:00 15.6 °F 11.6 °F 1010.4 in Calm     77 % 0.0 in 0.0 W/m2 CLR
01:05 15.6 °F 11.9 °F 1010.4 in Calm     79 % 0.0 in 0.0 W/m2 CLR
01:10 15.6 °F 11.9 °F 1010.4 in Calm     79 % 0.0 in 0.0 W/m2 CLR
01:15 15.6 °F 11.9 °F 1010.4 in South 1.9 mph   79 % 0.0 in 0.0 W/m2 CLR
01:20 15.0 °F 11.6 °F 1010.4 in Calm     80 % 0.0 in 0.0 W/m2 CLR
01:25 15.0 °F 11.4 °F 1010.4 in Calm     79 % 0.0 in 0.0 W/m2 CLR
01:30 15.0 °F 11.4 °F 1010.0 in Calm     79 % 0.0 in 0.0 W/m2 CLR
01:35 14.4 °F 11.2 °F 1010.0 in Calm     81 % 0.0 in 0.0 W/m2 CLR
01:40 14.4 °F 11.1 °F 1010.0 in Calm     80 % 0.0 in 0.0 W/m2 CLR
01:45 13.9 °F 10.7 °F 1010.0 in Calm     81 % 0.0 in 0.0 W/m2 CLR
01:50 13.9 °F 10.7 °F 1010.0 in Calm     81 % 0.0 in 0.0 W/m2 CLR
01:55 13.9 °F 10.7 °F 1010.0 in Calm     81 % 0.0 in 0.0 W/m2 CLR
02:00 13.9 °F 10.9 °F 1010.0 in Calm     82 % 0.0 in 0.0 W/m2 CLR
02:05 13.9 °F 10.9 °F 1010.0 in Calm     82 % 0.0 in 0.0 W/m2 CLR
02:10 13.3 °F 10.5 °F 1010.0 in Calm     83 % 0.0 in 0.0 W/m2 CLR
02:15 13.3 °F 10.5 °F 1009.7 in Calm     83 % 0.0 in 0.0 W/m2 CLR
02:20 13.3 °F 10.7 °F 1009.7 in SE 1.9 mph 1.9 mph 84 % 0.0 in 0.0 W/m2 CLR
02:25 13.3 °F 10.7 °F 1009.4 in Calm     84 % 0.0 in 0.0 W/m2 CLR
02:30 13.3 °F 10.7 °F 1009.4 in Calm     84 % 0.0 in 0.0 W/m2 CLR
02:35 13.9 °F 11.4 °F 1009.0 in Calm     85 % 0.0 in 0.0 W/m2 CLR
02:40 13.3 °F 10.9 °F 1009.0 in Calm     85 % 0.0 in 0.0 W/m2 CLR
02:45 13.3 °F 10.9 °F 1009.0 in Calm     85 % 0.0 in 0.0 W/m2 CLR
02:50 13.3 °F 10.9 °F 1009.0 in Calm     85 % 0.0 in 0.0 W/m2 CLR
02:55 13.3 °F 10.9 °F 1009.0 in Calm     85 % 0.0 in 0.0 W/m2 CLR
03:00 13.3 °F 10.9 °F 1009.0 in Calm     85 % 0.0 in 0.0 W/m2 CLR
03:05 13.3 °F 10.9 °F 1009.0 in Calm     85 % 0.0 in 0.0 W/m2 CLR
03:10 13.3 °F 10.9 °F 1008.7 in Calm     85 % 0.0 in 0.0 W/m2 CLR
03:15 13.3 °F 10.9 °F 1008.7 in Calm     85 % 0.0 in 0.0 W/m2 CLR
03:20 12.8 °F 10.3 °F 1008.7 in Calm     85 % 0.0 in 0.0 W/m2 CLR
03:25 12.8 °F 10.5 °F 1008.7 in Calm     86 % 0.0 in 0.0 W/m2 CLR
03:30 12.8 °F 10.5 °F 1008.7 in Calm     86 % 0.0 in 0.0 W/m2 CLR
03:31 12.8 °F 10.5 °F 1008.4 in Calm     86 % 0.0 in 0.0 W/m2 CLR
03:36 12.8 °F 10.5 °F 1008.4 in Calm     86 % 0.0 in 0.0 W/m2 CLR
03:41 12.8 °F 10.5 °F 1008.4 in Calm     86 % 0.0 in 0.0 W/m2 CLR
03:46 12.8 °F 10.5 °F 1008.4 in Calm     86 % 0.0 in 0.0 W/m2 CLR
03:51 12.8 °F 10.7 °F 1008.0 in Calm     87 % 0.0 in 0.0 W/m2 CLR
03:56 12.8 °F 10.7 °F 1008.0 in Calm     87 % 0.0 in 0.0 W/m2 CLR
04:01 12.8 °F 10.8 °F 1008.0 in Calm     88 % 0.0 in 0.0 W/m2 CLR
04:06 12.8 °F 10.8 °F 1008.0 in Calm     88 % 0.0 in 0.0 W/m2 CLR
04:11 12.8 °F 10.8 °F 1008.0 in Calm     88 % 0.0 in 0.0 W/m2 CLR
04:21 12.8 °F 10.8 °F 1007.7 in Calm     88 % 0.0 in 0.0 W/m2 CLR
04:26 12.8 °F 10.8 °F 1007.7 in Calm     88 % 0.0 in 0.0 W/m2 CLR
04:31 12.8 °F 10.8 °F 1007.7 in Calm     88 % 0.0 in 0.0 W/m2 CLR
04:36 12.8 °F 10.8 °F 1007.7 in Calm     88 % 0.0 in 0.0 W/m2 CLR
04:41 12.8 °F 10.8 °F 1007.7 in Calm     88 % 0.0 in 0.0 W/m2 CLR
04:46 13.3 °F 11.6 °F 1007.7 in Calm     89 % 0.0 in 0.0 W/m2 CLR
04:51 13.3 °F 11.6 °F 1007.7 in Calm     89 % 0.0 in 0.0 W/m2 CLR
04:56 13.3 °F 11.6 °F 1007.7 in Calm     89 % 0.0 in 0.0 W/m2 CLR
05:01 13.3 °F 11.6 °F 1008.0 in Calm     89 % 0.0 in 0.0 W/m2 CLR
05:06 13.3 °F 11.6 °F 1008.0 in Calm     89 % 0.0 in 0.0 W/m2 CLR
05:13 13.3 °F 11.6 °F 1008.0 in Calm     89 % 0.0 in 0.0 W/m2 CLR
05:18 13.3 °F 11.7 °F 1008.0 in Calm     90 % 0.0 in 0.0 W/m2 CLR
05:19 13.3 °F 11.7 °F 1008.0 in Calm     90 % 0.0 in 0.0 W/m2 CLR
05:21 13.3 °F 11.7 °F 1007.7 in Calm     90 % 0.0 in 0.0 W/m2 CLR
05:23 13.3 °F 11.6 °F 1007.7 in Calm     89 % 0.0 in 0.0 W/m2 CLR
05:26 13.3 °F 11.6 °F 1008.0 in Calm     89 % 0.0 in 0.0 W/m2 CLR
05:31 13.3 °F 11.7 °F 1007.7 in Calm     90 % 0.0 in 0.0 W/m2 CLR
05:36 12.8 °F 11.2 °F 1007.7 in Calm     90 % 0.0 in 0.0 W/m2 CLR
05:41 12.8 °F 11.0 °F 1007.7 in Calm     89 % 0.0 in 0.0 W/m2 CLR
05:46 12.8 °F 11.2 °F 1007.7 in Calm     90 % 0.0 in 0.0 W/m2 CLR
05:51 12.2 °F 10.6 °F 1007.7 in Calm     90 % 0.0 in 0.0 W/m2 CLR
05:56 12.2 °F 10.6 °F 1007.7 in Calm     90 % 0.0 in 0.0 W/m2 CLR
06:01 12.2 °F 10.6 °F 1007.3 in Calm     90 % 0.0 in 0.0 W/m2 CLR
06:06 12.2 °F 10.6 °F 1007.3 in Calm     90 % 0.0 in 0.0 W/m2 CLR
06:11 12.2 °F 10.6 °F 1007.3 in Calm     90 % 0.0 in 0.0 W/m2 CLR
06:16 11.7 °F 10.1 °F 1007.7 in Calm     90 % 0.0 in 0.0 W/m2 CLR
06:21 12.2 °F 10.6 °F 1007.7 in Calm     90 % 0.0 in 0.0 W/m2 CLR
06:26 12.2 °F 10.6 °F 1007.7 in Calm     90 % 0.0 in 0.0 W/m2 CLR
06:31 12.2 °F 10.6 °F 1007.7 in Calm     90 % 0.0 in 0.0 W/m2 CLR
06:36 12.2 °F 10.6 °F 1007.7 in Calm     90 % 0.0 in 0.0 W/m2 CLR
06:41 12.2 °F 10.6 °F 1007.7 in Calm     90 % 0.0 in 0.0 W/m2 CLR
06:46 12.2 °F 10.8 °F 1007.7 in Calm     91 % 0.0 in 0.0 W/m2 CLR
06:51 12.2 °F 10.8 °F 1007.7 in Calm     91 % 0.0 in 0.0 W/m2 CLR
06:56 12.2 °F 10.8 °F 1008.0 in Calm     91 % 0.0 in 0.0 W/m2 CLR
07:01 12.2 °F 10.9 °F 1008.0 in South 1.9 mph   92 % 0.0 in 0.0 W/m2 CLR
07:06 12.2 °F 10.6 °F 1008.0 in SW 5.6 mph 5.6 mph 90 % 0.0 in 0.0 W/m2 CLR
07:11 12.8 °F 10.7 °F 1008.4 in South 7.4 mph 7.4 mph 87 % 0.0 in 0.0 W/m2 CLR
07:16 12.8 °F 10.5 °F 1008.4 in SSW 9.3 mph 9.3 mph 86 % 0.0 in 0.0 W/m2 CLR
07:21 13.3 °F 11.2 °F 1008.4 in SSW 14.8 mph 14.8 mph 87 % 0.0 in 0.0 W/m2 CLR
07:26 14.4 °F 12.3 °F 1008.4 in SSW 14.5 mph 14.5 mph 87 % 0.0 in 0.0 W/m2 OVC
07:31 15.0 °F 12.5 °F 1008.7 in SSW 14.8 mph 14.8 mph 85 % 0.0 in 0.0 W/m2 OVC
07:36 15.0 °F 12.1 °F 1008.7 in SSW 11.3 mph 11.3 mph 83 % 0.0 in 0.0 W/m2 OVC
07:41 15.0 °F 11.8 °F 1008.7 in SSW 13.0 mph 13.0 mph 81 % 0.0 in 0.0 W/m2 OVC
07:46 15.6 °F 11.9 °F 1008.7 in South 9.3 mph 9.3 mph 79 % 0.0 in 5.0 W/m2 OVC
07:51 15.0 °F 11.0 °F 1008.7 in SSW 7.4 mph 7.4 mph 77 % 0.0 in 7.0 W/m2 BKN
07:56 15.0 °F 10.8 °F 1008.7 in SW 7.4 mph 7.4 mph 76 % 0.0 in 11.0 W/m2 BKN
08:01 15.0 °F 10.8 °F 1009.0 in SSW 7.4 mph   76 % 0.0 in 14.0 W/m2 BKN
08:06 15.0 °F 10.8 °F 1008.7 in Calm     76 % 0.0 in 19.0 W/m2 BKN
08:07 15.0 °F 10.8 °F 1008.7 in Calm     76 % 0.0 in 19.0 W/m2 BKN
08:12 15.0 °F 10.4 °F 1008.7 in SSW 5.6 mph 5.6 mph 74 % 0.0 in 25.0 W/m2 BKN
08:17 15.0 °F 10.4 °F 1009.0 in Calm     74 % 0.0 in 33.0 W/m2 BKN
08:22 15.0 °F 10.6 °F 1009.0 in Calm     75 % 0.0 in 42.0 W/m2 BKN
08:27 15.0 °F 10.8 °F 1009.0 in SSE 8.0 mph 8.0 mph 76 % 0.0 in 46.0 W/m2 SCT
08:32 15.0 °F 10.8 °F 1009.0 in SSE 5.6 mph   76 % 0.0 in 44.0 W/m2 BKN
08:37 15.6 °F 11.2 °F 1009.0 in South 11.1 mph 11.1 mph 75 % 0.0 in 44.0 W/m2 BKN
08:42 15.6 °F 10.3 °F 1009.0 in SE 14.5 mph 14.5 mph 71 % 0.0 in 56.0 W/m2 SCT
08:47 16.1 °F 10.4 °F 1009.0 in South 20.4 mph 20.4 mph 69 % 0.0 in 74.0 W/m2 SCT
08:52 16.1 °F 10.0 °F 1009.0 in SSE 11.1 mph 11.1 mph 67 % 0.0 in 83.0 W/m2 FEW
08:57 16.1 °F 9.8 °F 1009.0 in SSE 20.4 mph 20.4 mph 66 % 0.0 in 91.0 W/m2 FEW
09:02 16.1 °F 9.8 °F 1009.0 in South 13.0 mph 13.0 mph 66 % 0.0 in 118.0 W/m2 CLR
09:07 16.1 °F 10.0 °F 1009.0 in South 9.3 mph 9.3 mph 67 % 0.0 in 134.0 W/m2 CLR
09:12 16.7 °F 10.5 °F 1009.0 in SSW 18.5 mph 18.5 mph 67 % 0.0 in 121.0 W/m2 CLR
09:17 17.2 °F 11.1 °F 1009.0 in SSW 14.8 mph 14.8 mph 67 % 0.0 in 118.0 W/m2 CLR
09:22 17.2 °F 11.3 °F 1009.0 in South 20.4 mph 20.4 mph 68 % 0.0 in 148.0 W/m2 CLR
09:27 17.8 °F 11.8 °F 1009.0 in SSW 16.7 mph 16.7 mph 68 % 0.0 in 181.0 W/m2 CLR
09:32 17.8 °F 11.8 °F 1009.0 in SSW 14.8 mph 14.8 mph 68 % 0.0 in 227.0 W/m2 CLR
09:37 17.8 °F 11.8 °F 1009.0 in SSW 13.0 mph 13.0 mph 68 % 0.0 in 220.0 W/m2 CLR
09:42 18.3 °F 12.3 °F 1009.0 in South 18.5 mph 18.5 mph 68 % 0.0 in 206.0 W/m2 CLR
09:47 18.3 °F 12.6 °F 1009.0 in South 18.5 mph 18.5 mph 69 % 0.0 in 193.0 W/m2 CLR
09:52 18.3 °F 12.6 °F 1009.0 in SW 18.5 mph 18.5 mph 69 % 0.0 in 223.0 W/m2 CLR
09:57 18.3 °F 12.6 °F 1009.0 in SSW 5.6 mph 5.6 mph 69 % 0.0 in 264.0 W/m2 CLR
10:02 18.9 °F 13.1 °F 1009.0 in WSW 25.7 mph 25.7 mph 69 % 0.0 in 218.0 W/m2 CLR
10:07 18.9 °F 12.8 °F 1009.0 in South 14.8 mph 14.8 mph 68 % 0.0 in 174.0 W/m2 CLR
10:12 18.9 °F 12.8 °F 1009.0 in SSW 14.8 mph 14.8 mph 68 % 0.0 in 223.0 W/m2 CLR
10:17 18.9 °F 12.8 °F 1009.0 in SW 27.8 mph 27.8 mph 68 % 0.0 in 204.0 W/m2 CLR
10:22 18.9 °F 13.1 °F 1009.0 in West 24.1 mph 24.1 mph 69 % 0.0 in 218.0 W/m2 CLR
10:28 18.9 °F 13.1 °F 1009.0 in South 11.1 mph 11.1 mph 69 % 0.0 in 209.0 W/m2 CLR
10:33 18.9 °F 12.8 °F 1009.0 in SSW 27.8 mph 27.8 mph 68 % 0.0 in 199.0 W/m2 CLR
10:38 18.9 °F 12.8 °F 1009.0 in SSW 16.7 mph 16.7 mph 68 % 0.0 in 169.0 W/m2 CLR
10:43 18.9 °F 12.8 °F 1009.0 in SSW 24.1 mph 24.1 mph 68 % 0.0 in 144.0 W/m2 CLR
10:48 18.9 °F 12.8 °F 1009.0 in South 29.6 mph 29.6 mph 68 % 0.0 in 134.0 W/m2 CLR
10:53 18.9 °F 12.8 °F 1009.0 in SW 14.8 mph 14.8 mph 68 % 0.0 in 137.0 W/m2 CLR
10:58 18.9 °F 12.8 °F 1009.0 in SW 22.5 mph 22.5 mph 68 % 0.0 in 139.0 W/m2 CLR
11:03 18.9 °F 12.8 °F 1009.0 in SW 13.0 mph 13.0 mph 68 % 0.0 in 142.0 W/m2 CLR
11:08 18.9 °F 12.8 °F 1009.0 in SW 31.5 mph 31.5 mph 68 % 0.0 in 132.0 W/m2 CLR
11:13 18.9 °F 12.8 °F 1009.0 in SW 27.8 mph 27.8 mph 68 % 0.0 in 105.0 W/m2 CLR
11:18 18.9 °F 12.8 °F 1009.4 in SSW 22.2 mph 22.2 mph 68 % 0.0 in 125.0 W/m2 CLR
11:23 18.9 °F 12.8 °F 1009.4 in SW 22.2 mph 22.2 mph 68 % 0.0 in 142.0 W/m2 CLR
11:28 18.9 °F 12.8 °F 1009.4 in SSW 18.5 mph 18.5 mph 68 % 0.0 in 158.0 W/m2 CLR
11:33 19.4 °F 13.4 °F 1009.4 in SW 33.3 mph 33.3 mph 68 % 0.0 in 162.0 W/m2 CLR
11:38 19.4 °F 13.2 °F 1009.4 in WSW 16.1 mph 16.1 mph 67 % 0.0 in 162.0 W/m2 CLR
11:43 19.4 °F 13.2 °F 1009.4 in SW 20.4 mph 20.4 mph 67 % 0.0 in 202.0 W/m2 CLR
11:48 19.4 °F 13.2 °F 1009.4 in SW 24.1 mph 24.1 mph 67 % 0.0 in 192.0 W/m2 CLR
11:53 19.4 °F 12.9 °F 1009.4 in SW 25.9 mph 25.9 mph 66 % 0.0 in 185.0 W/m2 CLR
11:58 19.4 °F 13.2 °F 1009.4 in WSW 31.5 mph 31.5 mph 67 % 0.0 in 186.0 W/m2 CLR
12:03 20.0 °F 13.4 °F 1009.4 in WSW 27.8 mph 27.8 mph 66 % 0.0 in 146.0 W/m2 CLR
12:08 19.4 °F 12.9 °F 1009.4 in SW 42.6 mph 42.6 mph 66 % 0.0 in 163.0 W/m2 CLR
12:13 19.4 °F 13.2 °F 1009.4 in WSW 31.5 mph 31.5 mph 67 % 0.0 in 207.0 W/m2 CLR
12:18 20.0 °F 13.4 °F 1009.4 in WSW 37.0 mph 37.0 mph 66 % 0.0 in 200.0 W/m2 CLR
12:23 19.4 °F 13.2 °F 1009.4 in WSW 31.5 mph 31.5 mph 67 % 0.0 in 206.0 W/m2 CLR
12:28 20.0 °F 13.7 °F 1009.4 in West 33.8 mph 33.8 mph 67 % 0.0 in 209.0 W/m2 CLR
12:33 19.4 °F 13.2 °F 1009.4 in WSW 38.9 mph 38.9 mph 67 % 0.0 in 209.0 W/m2 CLR
12:38 19.4 °F 13.2 °F 1009.4 in WSW 37.0 mph 37.0 mph 67 % 0.0 in 185.0 W/m2 CLR
12:43 19.4 °F 13.2 °F 1009.4 in WSW 31.5 mph 31.5 mph 67 % 0.0 in 135.0 W/m2 CLR
12:48 19.4 °F 13.4 °F 1009.4 in West 25.9 mph 26.7 mph 68 % 0.0 in 123.0 W/m2 CLR
12:53 19.4 °F 13.4 °F 1009.4 in SSW 24.1 mph 24.1 mph 68 % 0.0 in 121.0 W/m2 CLR
12:58 18.9 °F 13.1 °F 1009.4 in SSW 29.6 mph 29.6 mph 69 % 0.0 in 116.0 W/m2 CLR
13:03 18.9 °F 13.1 °F 1009.0 in SW 31.5 mph 31.5 mph 69 % 0.0 in 104.0 W/m2 CLR
13:08 18.9 °F 12.4 °F 1009.0 in SW 42.6 mph 42.6 mph 66 % 0.0 in 105.0 W/m2 CLR
13:13 18.9 °F 12.2 °F 1009.4 in WSW 33.3 mph 33.3 mph 65 % 0.0 in 93.0 W/m2 CLR
13:18 18.9 °F 12.6 °F 1009.4 in WSW 31.5 mph 31.5 mph 67 % 0.0 in 95.0 W/m2 CLR
13:23 18.9 °F 12.4 °F 1009.4 in WSW 38.9 mph 38.9 mph 66 % 0.0 in 105.0 W/m2 CLR
13:28 18.9 °F 11.9 °F 1009.4 in SSW 40.7 mph 40.7 mph 64 % 0.0 in 118.0 W/m2 CLR
13:33 18.9 °F 11.9 °F 1009.4 in SSW 37.0 mph 37.0 mph 64 % 0.0 in 121.0 W/m2 CLR
13:38 18.9 °F 11.7 °F 1009.4 in SW 27.4 mph 27.4 mph 63 % 0.0 in 118.0 W/m2 CLR
13:43 18.9 °F 11.7 °F 1009.4 in WSW 32.2 mph 32.2 mph 63 % 0.0 in 134.0 W/m2 CLR
13:48 18.9 °F 11.9 °F 1009.4 in SW 33.3 mph 33.3 mph 64 % 0.0 in 139.0 W/m2 CLR
13:53 18.3 °F 11.6 °F 1009.4 in SW 31.5 mph 31.5 mph 65 % 0.0 in 130.0 W/m2 CLR
13:58 18.3 °F 11.9 °F 1009.4 in SW 35.2 mph 35.2 mph 66 % 0.0 in 111.0 W/m2 CLR
14:03 18.3 °F 12.1 °F 1009.4 in WSW 33.8 mph 33.8 mph 67 % 0.0 in 104.0 W/m2 CLR
14:08 17.8 °F 11.8 °F 1009.4 in SW 33.3 mph 33.3 mph 68 % 0.0 in 104.0 W/m2 CLR
14:13 17.8 °F 12.0 °F 1009.7 in SW 27.4 mph 27.4 mph 69 % 0.0 in 111.0 W/m2 CLR
14:18 17.8 °F 12.0 °F 1009.4 in SSW 27.8 mph 27.8 mph 69 % 0.0 in 105.0 W/m2 CLR
14:23 17.8 °F 12.2 °F 1009.4 in SW 27.8 mph 27.8 mph 70 % 0.0 in 81.0 W/m2 CLR
14:28 17.2 °F 12.1 °F 1009.4 in SSW 22.2 mph 22.2 mph 72 % 0.0 in 77.0 W/m2 FEW
14:33 17.2 °F 11.9 °F 1009.7 in SW 33.3 mph 33.3 mph 71 % 0.0 in 81.0 W/m2 FEW
14:38 17.2 °F 12.1 °F 1009.7 in WSW 25.9 mph 25.9 mph 72 % 0.0 in 95.0 W/m2 FEW
14:43 17.2 °F 12.1 °F 1009.4 in SSW 27.4 mph 27.4 mph 72 % 0.0 in 109.0 W/m2 CLR
14:44 17.2 °F 12.1 °F 1009.4 in SW 24.1 mph 24.1 mph 72 % 0.0 in 109.0 W/m2 CLR
14:49 16.7 °F 12.0 °F 1009.4 in WSW 20.4 mph 20.4 mph 74 % 0.0 in 100.0 W/m2 CLR
14:54 16.7 °F 11.8 °F 1009.4 in SSW 24.1 mph 24.1 mph 73 % 0.0 in 116.0 W/m2 CLR
14:59 16.7 °F 11.6 °F 1009.4 in SW 18.5 mph 18.5 mph 72 % 0.3 in 139.0 W/m2 RA
15:04 16.7 °F 11.4 °F 1009.4 in SW 20.4 mph 20.4 mph 71 % 0.3 in 142.0 W/m2 CLR
15:09 17.2 °F 11.7 °F 1009.4 in SW 24.1 mph 24.1 mph 70 % 0.3 in 193.0 W/m2 CLR
15:14 17.2 °F 11.3 °F 1009.4 in SW 22.2 mph 22.2 mph 68 % 0.3 in 236.0 W/m2 CLR
15:19 17.8 °F 11.3 °F 1009.4 in SSW 31.5 mph 31.5 mph 66 % 0.3 in 250.0 W/m2 CLR
15:24 18.3 °F 11.2 °F 1009.0 in SW 31.5 mph 31.5 mph 63 % 0.3 in 239.0 W/m2 CLR
15:29 18.3 °F 11.2 °F 1009.4 in WSW 31.5 mph 31.5 mph 63 % 0.3 in 248.0 W/m2 CLR
15:34 18.3 °F 11.2 °F 1009.0 in WSW 25.9 mph 25.9 mph 63 % 0.3 in 229.0 W/m2 CLR
15:39 18.9 °F 11.4 °F 1009.0 in SW 25.9 mph 25.9 mph 62 % 0.3 in 308.0 W/m2 CLR
15:44 18.9 °F 11.7 °F 1009.0 in SW 27.8 mph 27.8 mph 63 % 0.3 in 292.0 W/m2 CLR
15:49 18.9 °F 11.2 °F 1009.0 in SW 29.6 mph 29.6 mph 61 % 0.3 in 276.0 W/m2 CLR
15:54 18.9 °F 11.2 °F 1008.7 in WSW 27.8 mph 27.8 mph 61 % 0.3 in 271.0 W/m2 CLR
15:59 19.4 °F 11.2 °F 1008.7 in SW 35.2 mph 35.2 mph 59 % 0.0 in 322.0 W/m2 CLR
16:04 19.4 °F 11.5 °F 1008.7 in WSW 24.1 mph 24.1 mph 60 % 0.0 in 327.0 W/m2 CLR
16:09 20.0 °F 11.5 °F 1008.4 in SW 29.6 mph 29.6 mph 58 % 0.0 in 327.0 W/m2 CLR
16:14 20.0 °F 11.2 °F 1008.4 in WSW 33.3 mph 33.3 mph 57 % 0.0 in 334.0 W/m2 CLR
16:19 20.0 °F 11.2 °F 1008.4 in West 25.9 mph 25.9 mph 57 % 0.0 in 309.0 W/m2 CLR
16:24 20.0 °F 10.9 °F 1008.4 in WSW 29.6 mph 29.6 mph 56 % 0.0 in 287.0 W/m2 CLR
16:29 20.0 °F 10.9 °F 1008.4 in WSW 33.3 mph 33.3 mph 56 % 0.0 in 318.0 W/m2 CLR
16:34 20.0 °F 10.9 °F 1008.4 in WSW 32.2 mph 32.2 mph 56 % 0.0 in 399.0 W/m2 CLR
16:39 20.6 °F 11.2 °F 1008.4 in WSW 24.1 mph 24.1 mph 55 % 0.0 in 408.0 W/m2 CLR
16:44 20.6 °F 10.9 °F 1008.4 in WSW 29.6 mph 29.6 mph 54 % 0.0 in 378.0 W/m2 CLR
16:49 21.1 °F 11.7 °F 1008.4 in West 27.8 mph 27.8 mph 55 % 0.0 in 633.0 W/m2 CLR
16:54 21.1 °F 11.2 °F 1008.4 in SW 35.2 mph 35.2 mph 53 % 0.0 in 461.0 W/m2 CLR
16:59 20.6 °F 10.9 °F 1008.0 in SW 24.1 mph 24.1 mph 54 % 0.0 in 287.0 W/m2 CLR
17:00 20.6 °F 10.9 °F 1008.0 in SW 29.6 mph 29.6 mph 54 % 0.0 in 287.0 W/m2 CLR
17:05 20.6 °F 11.2 °F 1008.4 in SW 33.3 mph 33.3 mph 55 % 0.0 in 359.0 W/m2 CLR
17:10 21.1 °F 11.7 °F 1008.4 in WSW 31.5 mph 31.5 mph 55 % 0.0 in 425.0 W/m2 CLR
17:15 21.1 °F 11.4 °F 1008.4 in West 31.5 mph 31.5 mph 54 % 0.0 in 464.0 W/m2 CLR
17:20 21.7 °F 11.9 °F 1008.4 in SW 29.6 mph 29.6 mph 54 % 0.0 in 274.0 W/m2 CLR
17:25 21.1 °F 11.2 °F 1008.4 in SW 33.3 mph 33.3 mph 53 % 0.0 in 232.0 W/m2 CLR
17:30 21.1 °F 11.4 °F 1008.4 in SW 30.6 mph 30.6 mph 54 % 0.0 in 272.0 W/m2 CLR
17:35 21.1 °F 11.2 °F 1008.4 in WSW 22.2 mph 22.2 mph 53 % 0.0 in 206.0 W/m2 CLR
17:40 20.6 °F 10.7 °F 1008.4 in SW 31.5 mph 31.5 mph 53 % 0.0 in 188.0 W/m2 CLR
17:45 20.6 °F 10.9 °F 1008.4 in SW 35.2 mph 35.2 mph 54 % 0.0 in 186.0 W/m2 CLR
17:50 20.6 °F 10.9 °F 1008.4 in WSW 29.6 mph 29.6 mph 54 % 0.0 in 206.0 W/m2 CLR
17:55 20.6 °F 10.7 °F 1008.4 in WSW 38.9 mph 38.9 mph 53 % 0.0 in 139.0 W/m2 CLR
18:00 20.0 °F 10.4 °F 1008.7 in West 32.2 mph 32.2 mph 54 % 0.0 in 100.0 W/m2 CLR
18:05 20.0 °F 10.1 °F 1008.7 in SSW 38.9 mph 38.9 mph 53 % 0.0 in 62.0 W/m2 CLR
18:10 19.4 °F 9.6 °F 1008.7 in West 33.3 mph 33.3 mph 53 % 0.0 in 51.0 W/m2 FEW
18:15 19.4 °F 9.9 °F 1008.7 in SW 25.9 mph 25.9 mph 54 % 0.0 in 40.0 W/m2 SCT
18:20 19.4 °F 9.9 °F 1008.7 in WSW 31.5 mph 31.5 mph 54 % 0.0 in 28.0 W/m2 BKN
18:25 18.9 °F 9.4 °F 1008.7 in WSW 37.0 mph 37.0 mph 54 % 0.0 in 37.0 W/m2 BKN
18:30 18.9 °F 9.7 °F 1009.0 in WSW 38.9 mph 38.9 mph 55 % 0.0 in 32.0 W/m2 BKN
18:35 18.9 °F 9.9 °F 1008.7 in SW 33.3 mph 33.3 mph 56 % 0.0 in 23.0 W/m2 BKN
18:40 18.9 °F 10.2 °F 1008.7 in SW 37.0 mph 37.0 mph 57 % 0.0 in 32.0 W/m2 BKN
18:45 18.3 °F 10.4 °F 1009.0 in SW 30.6 mph 30.6 mph 60 % 0.0 in 25.0 W/m2 BKN
18:50 17.8 °F 10.4 °F 1009.0 in SW 33.3 mph 33.3 mph 62 % 0.0 in 25.0 W/m2 BKN
18:55 17.2 °F 9.9 °F 1009.0 in SSW 25.9 mph 25.9 mph 62 % 0.0 in 30.0 W/m2 BKN
19:01 17.2 °F 9.9 °F 1009.0 in SSW 25.9 mph 25.9 mph 62 % 0.0 in 35.0 W/m2 BKN
19:06 17.2 °F 10.1 °F 1009.0 in SSW 18.5 mph 18.5 mph 63 % 0.0 in 33.0 W/m2 BKN
19:11 16.7 °F 10.1 °F 1009.0 in SSW 25.9 mph 25.9 mph 65 % 0.0 in 28.0 W/m2 BKN
19:16 16.7 °F 10.7 °F 1009.0 in South 18.5 mph 18.5 mph 68 % 0.0 in 28.0 W/m2 BKN
19:21 16.1 °F 10.4 °F 1009.0 in SSW 5.6 mph 5.6 mph 69 % 0.0 in 35.0 W/m2 BKN
19:26 16.1 °F 10.4 °F 1009.0 in South 16.7 mph 16.7 mph 69 % 0.0 in 47.0 W/m2 SCT
19:31 16.1 °F 10.4 °F 1009.0 in SSW 20.4 mph 20.4 mph 69 % 0.0 in 70.0 W/m2 SCT
19:36 16.1 °F 10.2 °F 1009.0 in SSW 25.9 mph 25.9 mph 68 % 0.0 in 74.0 W/m2 FEW
19:41 16.1 °F 10.0 °F 1009.0 in SSW 24.1 mph 24.1 mph 67 % 0.0 in 90.0 W/m2 CLR
19:46 16.1 °F 10.0 °F 1009.0 in South 20.4 mph 20.4 mph 67 % 0.0 in 62.0 W/m2 SCT
19:51 16.1 °F 10.0 °F 1009.0 in SSW 20.4 mph 20.4 mph 67 % 0.0 in 56.0 W/m2 SCT
19:56 16.1 °F 10.0 °F 1009.0 in SSW 22.2 mph 22.2 mph 67 % 0.0 in 49.0 W/m2 SCT
20:01 16.1 °F 10.0 °F 1009.0 in South 18.5 mph 19.1 mph 67 % 0.0 in 32.0 W/m2 BKN
20:06 16.1 °F 10.0 °F 1009.0 in SSW 25.9 mph 25.9 mph 67 % 0.0 in 16.0 W/m2 BKN
20:11 16.1 °F 10.0 °F 1009.0 in South 18.5 mph 18.5 mph 67 % 0.0 in 11.0 W/m2 BKN
20:16 16.1 °F 10.2 °F 1009.0 in South 25.9 mph 25.9 mph 68 % 0.0 in 5.0 W/m2 BKN
20:21 16.1 °F 10.2 °F 1009.0 in SSW 22.2 mph 22.2 mph 68 % 0.0 in 0.0 W/m2 OVC
20:26 15.6 °F 9.7 °F 1009.0 in South 14.8 mph 14.8 mph 68 % 0.0 in 0.0 W/m2 OVC
20:31 15.6 °F 9.7 °F 1009.0 in SSW 22.2 mph 22.2 mph 68 % 0.0 in 0.0 W/m2 CLR
20:36 15.6 °F 9.7 °F 1009.0 in South 19.3 mph 19.3 mph 68 % 0.0 in 0.0 W/m2 CLR
20:41 15.6 °F 9.7 °F 1009.0 in South 24.1 mph 24.1 mph 68 % 0.0 in 0.0 W/m2 CLR
20:46 15.6 °F 9.7 °F 1009.4 in SSW 22.2 mph 22.2 mph 68 % 0.0 in 0.0 W/m2 CLR
20:51 15.6 °F 9.7 °F 1009.4 in SSW 24.1 mph 24.1 mph 68 % 0.0 in 0.0 W/m2 CLR
20:56 15.6 °F 9.7 °F 1009.4 in SW 18.5 mph 18.5 mph 68 % 0.0 in 0.0 W/m2 CLR
21:01 15.6 °F 9.7 °F 1009.4 in South 27.8 mph 27.8 mph 68 % 0.0 in 0.0 W/m2 CLR
21:06 15.6 °F 9.7 °F 1009.7 in South 24.1 mph 24.1 mph 68 % 0.0 in 0.0 W/m2 CLR
21:08 15.6 °F 9.7 °F 1009.7 in SSW 22.2 mph 22.2 mph 68 % 0.0 in 0.0 W/m2 CLR
21:13 15.6 °F 9.7 °F 1009.7 in SSW 20.4 mph 20.4 mph 68 % 0.0 in 0.0 W/m2 CLR
21:18 15.6 °F 9.4 °F 1009.7 in South 20.4 mph 20.4 mph 67 % 0.0 in 0.0 W/m2 CLR
21:23 15.6 °F 9.4 °F 1009.7 in South 20.4 mph 20.4 mph 67 % 0.0 in 0.0 W/m2 CLR
21:28 15.6 °F 9.2 °F 1010.0 in SSW 18.5 mph 18.5 mph 66 % 0.0 in 0.0 W/m2 CLR
21:33 15.6 °F 9.2 °F 1010.0 in SSW 22.2 mph 22.2 mph 66 % 0.0 in 0.0 W/m2 CLR
21:34 15.6 °F 9.2 °F 1010.0 in SSW 22.2 mph 22.2 mph 66 % 0.0 in 0.0 W/m2 CLR
21:39 15.6 °F 9.2 °F 1010.0 in SSW 22.2 mph 22.2 mph 66 % 0.0 in 0.0 W/m2 CLR
21:44 16.1 °F 9.5 °F 1010.0 in SSW 20.4 mph 20.4 mph 65 % 0.0 in 0.0 W/m2 CLR
21:49 16.1 °F 9.3 °F 1010.4 in SSW 22.5 mph 22.5 mph 64 % 0.0 in 0.0 W/m2 CLR
21:54 16.7 °F 9.8 °F 1010.4 in SW 20.4 mph 20.4 mph 64 % 0.0 in 0.0 W/m2 CLR
21:59 16.7 °F 9.6 °F 1010.7 in WSW 31.5 mph 31.5 mph 63 % 0.0 in 0.0 W/m2 CLR
22:04 16.7 °F 8.9 °F 1010.7 in WSW 29.0 mph 29.0 mph 60 % 0.0 in 0.0 W/m2 CLR
22:09 16.7 °F 8.6 °F 1010.7 in WSW 35.2 mph 35.2 mph 59 % 0.0 in 0.0 W/m2 CLR
22:14 16.7 °F 8.3 °F 1011.1 in West 42.6 mph 42.6 mph 58 % 0.0 in 0.0 W/m2 CLR
22:19 16.7 °F 8.6 °F 1011.1 in SW 33.8 mph 33.8 mph 59 % 0.0 in 0.0 W/m2 CLR
22:24 16.7 °F 8.6 °F 1011.1 in WSW 31.5 mph 31.5 mph 59 % 0.0 in 0.0 W/m2 CLR
22:29 16.7 °F 8.6 °F 1011.1 in WSW 29.6 mph 29.6 mph 59 % 0.0 in 0.0 W/m2 CLR
22:34 16.7 °F 8.6 °F 1011.1 in SW 33.8 mph 33.8 mph 59 % 0.0 in 0.0 W/m2 CLR
22:39 16.7 °F 8.3 °F 1011.1 in WSW 35.2 mph 35.2 mph 58 % 0.0 in 0.0 W/m2 CLR
22:44 16.7 °F 8.3 °F 1011.1 in WSW 33.3 mph 33.3 mph 58 % 0.0 in 0.0 W/m2 CLR
22:49 16.7 °F 8.6 °F 1011.4 in SW 35.2 mph 35.2 mph 59 % 0.0 in 0.0 W/m2 CLR
22:54 16.7 °F 8.6 °F 1011.1 in SW 29.6 mph 29.6 mph 59 % 0.0 in 0.0 W/m2 CLR
22:59 16.1 °F 8.1 °F 1011.1 in WSW 31.5 mph 31.5 mph 59 % 0.0 in 0.0 W/m2 CLR
23:04 16.1 °F 8.1 °F 1011.1 in WSW 33.3 mph 33.3 mph 59 % 0.0 in 0.0 W/m2 CLR
23:09 16.1 °F 8.1 °F 1011.4 in West 25.9 mph 25.9 mph 59 % 0.0 in 0.0 W/m2 CLR
23:14 16.1 °F 8.1 °F 1011.4 in WSW 37.0 mph 37.0 mph 59 % 0.0 in 0.0 W/m2 CLR
23:19 16.1 °F 8.1 °F 1011.4 in SW 38.9 mph 38.9 mph 59 % 0.0 in 0.0 W/m2 CLR
23:24 16.1 °F 8.1 °F 1011.7 in SW 31.5 mph 31.5 mph 59 % 0.0 in 0.0 W/m2 CLR
23:29 16.1 °F 8.3 °F 1011.4 in SW 40.7 mph 40.7 mph 60 % 0.0 in 0.0 W/m2 CLR
23:34 16.1 °F 8.3 °F 1011.4 in SW 33.3 mph 33.3 mph 60 % 0.0 in 0.0 W/m2 CLR
23:39 15.6 °F 7.8 °F 1011.4 in SW 35.2 mph 35.2 mph 60 % 0.0 in 0.0 W/m2 CLR
23:44 15.6 °F 7.8 °F 1011.4 in SSW 37.0 mph 37.0 mph 60 % 0.0 in 0.0 W/m2 CLR
23:49 15.6 °F 7.8 °F 1011.4 in SSW 44.4 mph 44.4 mph 60 % 0.0 in 0.0 W/m2 CLR
23:54 15.6 °F 7.8 °F 1011.4 in SW 40.2 mph 40.2 mph 60 % 0.0 in 0.0 W/m2 CLR
23:59 15.6 °F 7.8 °F 1011.4 in SSW 40.7 mph 40.7 mph 60 % 0.0 in 0.0 W/m2 CLR
Lo Temps de Massalio
Compliments of Weather Underground - 1.25 mb